Time;durP1;ratioP1;P1;durP2;ratioP2;P2;SDS_P1;SDS_P2;PMS_P1;PMS_P2;Temp;Humidity;BMP_temperature;BMP_pressure;BME280_temperature;BME280_humidity;BME280_pressure;Samples;Min_cycle;Max_cycle;Signal;HPM_P1;HPM_P2
2023/12/16 00:00:51;;;;;;;12.23;7.70;;;;;;;;;;5029419;28;20212;-62
2023/12/16 00:03:19;;;;;;;11.77;7.97;;;;;;;;;;5041944;28;20622;-62
2023/12/16 00:05:47;;;;;;;10.50;7.70;;;;;;;;;;5049174;28;20231;-62
2023/12/16 00:08:14;;;;;;;10.33;7.70;;;;;;;;;;5049439;28;20231;-62
2023/12/16 00:10:40;;;;;;;12.53;8.13;;;;;;;;;;5049430;28;20211;-62
2023/12/16 00:13:12;;;;;;;12.80;7.90;;;;;;;;;;5049506;28;20636;-62
2023/12/16 00:15:39;;;;;;;10.60;7.30;;;;;;;;;;5048993;28;20208;-62
2023/12/16 00:18:06;;;;;;;10.00;7.67;;;;;;;;;;5048923;28;20239;-62
2023/12/16 00:20:33;;;;;;;12.27;7.80;;;;;;;;;;5049092;28;20590;-62
2023/12/16 00:23:00;;;;;;;11.63;8.07;;;;;;;;;;5047525;28;20200;-62
2023/12/16 00:25:27;;;;;;;13.93;7.87;;;;;;;;;;5048724;28;20796;-62
2023/12/16 00:27:54;;;;;;;10.93;7.40;;;;;;;;;;5048607;28;20285;-62
2023/12/16 00:30:22;;;;;;;11.17;7.63;;;;;;;;;;5048703;28;20585;-62
2023/12/16 00:32:49;;;;;;;10.57;7.50;;;;;;;;;;5048857;28;20214;-61
2023/12/16 00:35:17;;;;;;;11.30;7.50;;;;;;;;;;5044615;28;20211;-62
2023/12/16 00:37:44;;;;;;;14.43;7.10;;;;;;;;;;5048796;28;20687;-62
2023/12/16 00:40:11;;;;;;;13.10;7.40;;;;;;;;;;5048862;28;20222;-62
2023/12/16 00:42:38;;;;;;;11.40;7.70;;;;;;;;;;5049052;28;20234;-62
2023/12/16 00:45:06;;;;;;;10.37;7.50;;;;;;;;;;5047751;28;20649;-62
2023/12/16 00:47:35;;;;;;;8.97;6.97;;;;;;;;;;5047906;28;20840;-62
2023/12/16 00:50:02;;;;;;;8.50;7.00;;;;;;;;;;5048268;28;20257;-62
2023/12/16 00:52:29;;;;;;;10.03;7.33;;;;;;;;;;5028889;28;20603;-62
2023/12/16 00:54:56;;;;;;;12.60;7.90;;;;;;;;;;5028623;28;20216;-62
2023/12/16 00:57:23;;;;;;;17.13;7.83;;;;;;;;;;5045603;28;20196;-62
2023/12/16 00:59:50;;;;;;;11.10;7.03;;;;;;;;;;5048319;28;20211;-62
2023/12/16 01:02:17;;;;;;;10.33;7.13;;;;;;;;;;5047768;28;20689;-61
2023/12/16 01:04:45;;;;;;;12.17;7.47;;;;;;;;;;5047898;28;20730;-62
2023/12/16 01:07:12;;;;;;;11.53;7.67;;;;;;;;;;5047193;28;20223;-62
2023/12/16 01:09:39;;;;;;;10.70;7.67;;;;;;;;;;5047119;28;20223;-62
2023/12/16 01:12:08;;;;;;;11.90;7.77;;;;;;;;;;5047302;28;20203;-62
2023/12/16 01:14:35;;;;;;;10.73;7.10;;;;;;;;;;5047354;28;20215;-62
2023/12/16 01:17:02;;;;;;;10.23;6.93;;;;;;;;;;5047553;28;20235;-62
2023/12/16 01:19:29;;;;;;;10.87;7.07;;;;;;;;;;5047520;28;20204;-61
2023/12/16 01:21:58;;;;;;;11.17;7.80;;;;;;;;;;5047999;28;20204;-62
2023/12/16 01:24:25;;;;;;;8.63;6.87;;;;;;;;;;5037943;28;20874;-62
2023/12/16 01:26:52;;;;;;;10.13;7.00;;;;;;;;;;5048053;28;20238;-62
2023/12/16 01:29:19;;;;;;;12.33;7.13;;;;;;;;;;5048017;28;20207;-62
2023/12/16 01:31:46;;;;;;;9.97;7.40;;;;;;;;;;5046437;28;20693;-62
2023/12/16 01:34:13;;;;;;;10.87;7.73;;;;;;;;;;5047736;28;20203;-62
2023/12/16 01:36:39;;;;;;;10.20;7.30;;;;;;;;;;5047681;28;20196;-62
2023/12/16 01:39:08;;;;;;;9.47;6.73;;;;;;;;;;5047686;28;20239;-62
2023/12/16 01:41:35;;;;;;;8.17;7.20;;;;;;;;;;5047971;28;20203;-62
2023/12/16 01:44:02;;;;;;;14.77;7.37;;;;;;;;;;5038991;28;20238;-62
2023/12/16 01:46:29;;;;;;;12.40;7.63;;;;;;;;;;5047613;28;20220;-62
2023/12/16 01:48:56;;;;;;;9.07;6.40;;;;;;;;;;5048163;28;20212;-62
2023/12/16 01:51:23;;;;;;;9.03;7.07;;;;;;;;;;5047842;28;20211;-62
2023/12/16 01:53:50;;;;;;;11.97;6.77;;;;;;;;;;5043781;28;20210;-61
2023/12/16 01:56:20;;;;;;;10.33;7.10;;;;;;;;;;5032409;28;20208;-62
2023/12/16 01:58:48;;;;;;;8.37;6.43;;;;;;;;;;5047675;28;20257;-62
2023/12/16 02:01:15;;;;;;;9.90;6.93;;;;;;;;;;5047435;28;20211;-62
2023/12/16 02:03:42;;;;;;;12.33;7.23;;;;;;;;;;5045981;28;20206;-62
2023/12/16 02:06:30;;;;;;;10.57;7.13;;;;;;;;;;5041308;28;20223;-62
2023/12/16 02:08:57;;;;;;;10.60;7.37;;;;;;;;;;5047469;28;20204;-62
2023/12/16 02:11:26;;;;;;;10.40;6.90;;;;;;;;;;5047095;28;20203;-62
2023/12/16 02:13:53;;;;;;;8.57;6.57;;;;;;;;;;5045760;28;20330;-61
2023/12/16 02:16:20;;;;;;;9.00;6.67;;;;;;;;;;5046794;28;20242;-62
2023/12/16 02:18:47;;;;;;;10.37;7.47;;;;;;;;;;5047256;28;20244;-62
2023/12/16 02:21:14;;;;;;;10.60;6.93;;;;;;;;;;5040007;28;20204;-62
2023/12/16 02:23:42;;;;;;;9.80;7.13;;;;;;;;;;5046913;28;20215;-62
2023/12/16 02:26:09;;;;;;;10.50;7.07;;;;;;;;;;5045600;28;20219;-62
2023/12/16 02:28:36;;;;;;;12.50;6.90;;;;;;;;;;5047463;28;20686;-62
2023/12/16 02:31:04;;;;;;;10.30;7.50;;;;;;;;;;5045760;28;20208;-62
2023/12/16 02:33:31;;;;;;;10.13;7.13;;;;;;;;;;5047307;28;20199;-62
2023/12/16 02:35:58;;;;;;;10.33;6.97;;;;;;;;;;5032523;28;20204;-62
2023/12/16 02:38:25;;;;;;;12.80;8.23;;;;;;;;;;5046796;28;20200;-62
2023/12/16 02:40:53;;;;;;;13.70;6.93;;;;;;;;;;5046717;28;20200;-62
2023/12/16 02:43:21;;;;;;;10.00;7.53;;;;;;;;;;5046791;28;20208;-63
2023/12/16 02:45:48;;;;;;;13.70;7.13;;;;;;;;;;5044516;28;20666;-62
2023/12/16 02:48:15;;;;;;;10.43;7.53;;;;;;;;;;5042844;28;20223;-62
2023/12/16 02:50:42;;;;;;;11.47;7.10;;;;;;;;;;5047127;28;20219;-62
2023/12/16 02:53:09;;;;;;;11.27;7.70;;;;;;;;;;5047154;28;20257;-62
2023/12/16 02:55:36;;;;;;;11.47;7.57;;;;;;;;;;5046722;28;20219;-61
2023/12/16 02:58:04;;;;;;;9.83;7.43;;;;;;;;;;5041733;28;20199;-62
2023/12/16 03:00:31;;;;;;;10.77;6.80;;;;;;;;;;5045643;28;20207;-62
2023/12/16 03:02:58;;;;;;;11.87;6.77;;;;;;;;;;5041537;28;20200;-62
2023/12/16 03:05:25;;;;;;;9.23;7.10;;;;;;;;;;5029821;28;20204;-62
2023/12/16 03:07:52;;;;;;;10.47;7.60;;;;;;;;;;5040485;28;20230;-62
2023/12/16 03:10:19;;;;;;;12.53;7.63;;;;;;;;;;5045989;28;20208;-62
2023/12/16 03:12:46;;;;;;;11.27;7.77;;;;;;;;;;5044116;28;20218;-61
2023/12/16 03:15:15;;;;;;;12.23;6.97;;;;;;;;;;5046046;28;20219;-61
2023/12/16 03:17:43;;;;;;;13.93;8.50;;;;;;;;;;5045231;28;20246;-62
2023/12/16 03:20:11;;;;;;;12.57;6.93;;;;;;;;;;5045158;28;20413;-61
2023/12/16 03:22:38;;;;;;;9.63;7.77;;;;;;;;;;5045225;28;20208;-62
2023/12/16 03:25:05;;;;;;;14.70;7.83;;;;;;;;;;5043001;28;20207;-62
2023/12/16 03:27:32;;;;;;;9.70;7.23;;;;;;;;;;5049669;28;20238;-62
2023/12/16 03:29:59;;;;;;;14.40;7.87;;;;;;;;;;5049967;28;20211;-62
2023/12/16 03:32:27;;;;;;;10.07;7.03;;;;;;;;;;5048923;28;20756;-62
2023/12/16 03:34:54;;;;;;;14.50;7.63;;;;;;;;;;5046034;28;20215;-62
2023/12/16 03:37:21;;;;;;;12.27;7.73;;;;;;;;;;5050184;28;20207;-62
2023/12/16 03:39:48;;;;;;;10.10;7.10;;;;;;;;;;5047899;28;20210;-61
2023/12/16 03:42:16;;;;;;;12.60;8.07;;;;;;;;;;5047673;28;20196;-62
2023/12/16 03:44:46;;;;;;;11.80;7.37;;;;;;;;;;5046307;28;20215;-62
2023/12/16 03:47:13;;;;;;;15.00;8.00;;;;;;;;;;5049616;28;20232;-62
2023/12/16 03:49:41;;;;;;;8.20;6.70;;;;;;;;;;5049278;28;20208;-62
2023/12/16 03:52:09;;;;;;;10.50;7.00;;;;;;;;;;5049167;28;20673;-62
2023/12/16 03:54:36;;;;;;;8.20;6.40;;;;;;;;;;5049244;28;20211;-63
2023/12/16 03:57:03;;;;;;;10.23;6.07;;;;;;;;;;5049875;28;20246;-61
2023/12/16 03:59:30;;;;;;;12.33;5.93;;;;;;;;;;5049038;28;20576;-61
2023/12/16 04:01:57;;;;;;;13.20;7.17;;;;;;;;;;5049243;28;20277;-61
2023/12/16 04:04:24;;;;;;;10.83;7.13;;;;;;;;;;5042981;28;20203;-61
2023/12/16 04:06:53;;;;;;;13.80;7.13;;;;;;;;;;5042061;28;20231;-61
2023/12/16 04:09:20;;;;;;;11.10;7.00;;;;;;;;;;5048981;28;20211;-62
2023/12/16 04:11:47;;;;;;;10.67;7.40;;;;;;;;;;5048685;28;20207;-61
2023/12/16 04:14:14;;;;;;;13.63;6.70;;;;;;;;;;5047471;28;20231;-61
2023/12/16 04:16:42;;;;;;;10.47;7.23;;;;;;;;;;5036063;28;20224;-62
2023/12/16 04:19:09;;;;;;;14.43;6.87;;;;;;;;;;5044549;28;20212;-61
2023/12/16 04:21:37;;;;;;;12.00;6.70;;;;;;;;;;5044005;28;20211;-62
2023/12/16 04:24:05;;;;;;;12.90;7.10;;;;;;;;;;5040564;28;20232;-62
2023/12/16 04:26:32;;;;;;;12.27;7.33;;;;;;;;;;5029217;28;20220;-61
2023/12/16 04:28:59;;;;;;;9.23;6.80;;;;;;;;;;5029446;28;20216;-61
2023/12/16 04:31:26;;;;;;;9.40;6.90;;;;;;;;;;5032393;28;20257;-61
2023/12/16 04:33:55;;;;;;;13.63;7.20;;;;;;;;;;5042594;28;20212;-62
2023/12/16 04:36:22;;;;;;;9.60;6.80;;;;;;;;;;5032782;28;21054;-62
2023/12/16 04:38:49;;;;;;;9.70;6.80;;;;;;;;;;5048852;28;20210;-62
2023/12/16 04:41:17;;;;;;;9.77;7.10;;;;;;;;;;5048266;28;20933;-61
2023/12/16 04:43:44;;;;;;;8.90;6.67;;;;;;;;;;5043298;28;20239;-61
2023/12/16 04:46:11;;;;;;;12.07;7.80;;;;;;;;;;5028784;28;20212;-62
2023/12/16 04:48:38;;;;;;;10.40;7.03;;;;;;;;;;5028825;28;20247;-62
2023/12/16 04:51:06;;;;;;;8.80;6.87;;;;;;;;;;5030472;28;20208;-61
2023/12/16 04:53:33;;;;;;;10.87;7.20;;;;;;;;;;5045644;28;20206;-61
2023/12/16 04:56:00;;;;;;;11.90;7.63;;;;;;;;;;5028454;28;20216;-61
2023/12/16 04:58:28;;;;;;;11.80;7.20;;;;;;;;;;5028476;28;20215;-62
2023/12/16 05:00:55;;;;;;;10.10;6.83;;;;;;;;;;5028243;28;20204;-61
2023/12/16 05:03:22;;;;;;;11.63;6.80;;;;;;;;;;5048130;28;20218;-62
2023/12/16 05:05:49;;;;;;;13.10;7.57;;;;;;;;;;5029175;28;20230;-61
2023/12/16 05:08:19;;;;;;;11.37;7.23;;;;;;;;;;5028502;28;20785;-62
2023/12/16 05:10:47;;;;;;;13.13;6.80;;;;;;;;;;5030396;28;20573;-62
2023/12/16 05:13:14;;;;;;;10.00;7.27;;;;;;;;;;5047175;28;20294;-62
2023/12/16 05:15:43;;;;;;;14.40;7.63;;;;;;;;;;5046462;28;20414;-62
2023/12/16 05:18:10;;;;;;;10.10;6.77;;;;;;;;;;5047977;28;20232;-62
2023/12/16 05:20:37;;;;;;;9.07;6.70;;;;;;;;;;5047972;28;20216;-62
2023/12/16 05:23:04;;;;;;;12.10;7.07;;;;;;;;;;5047990;28;20708;-61
2023/12/16 05:25:31;;;;;;;11.53;6.60;;;;;;;;;;5035904;28;20207;-61
2023/12/16 05:27:59;;;;;;;9.27;6.37;;;;;;;;;;5027674;28;20244;-61
2023/12/16 05:30:26;;;;;;;9.80;6.33;;;;;;;;;;5027757;28;20299;-61
2023/12/16 05:32:54;;;;;;;10.00;6.47;;;;;;;;;;5047898;28;20211;-62
2023/12/16 05:35:21;;;;;;;7.97;6.40;;;;;;;;;;5037377;28;20208;-61
2023/12/16 05:37:48;;;;;;;9.43;6.30;;;;;;;;;;5028009;28;20219;-62
2023/12/16 05:40:15;;;;;;;11.27;7.20;;;;;;;;;;5029980;28;20216;-62
2023/12/16 05:42:42;;;;;;;10.87;7.13;;;;;;;;;;5046026;28;20215;-61
2023/12/16 05:45:09;;;;;;;10.70;7.30;;;;;;;;;;5042550;28;20204;-61
2023/12/16 05:47:36;;;;;;;11.30;7.23;;;;;;;;;;5027516;28;20240;-62
2023/12/16 05:50:04;;;;;;;12.77;6.93;;;;;;;;;;5042109;28;20200;-62
2023/12/16 05:52:32;;;;;;;12.60;6.87;;;;;;;;;;5047465;28;20674;-62
2023/12/16 05:54:59;;;;;;;11.57;7.20;;;;;;;;;;5039571;28;20224;-61
2023/12/16 05:57:26;;;;;;;11.23;7.03;;;;;;;;;;5027269;28;20737;-62
2023/12/16 05:59:53;;;;;;;10.77;6.70;;;;;;;;;;5037045;28;20228;-61
2023/12/16 06:02:20;;;;;;;10.40;6.87;;;;;;;;;;5047022;28;20196;-62
2023/12/16 06:04:47;;;;;;;10.27;6.90;;;;;;;;;;5039857;28;20693;-61
2023/12/16 06:07:16;;;;;;;10.07;6.60;;;;;;;;;;5027332;28;20232;-61
2023/12/16 06:09:43;;;;;;;12.93;7.17;;;;;;;;;;5032002;28;20200;-61
2023/12/16 06:12:10;;;;;;;9.57;6.73;;;;;;;;;;5047126;28;20211;-61
2023/12/16 06:14:37;;;;;;;8.80;6.67;;;;;;;;;;5044909;28;20212;-61
2023/12/16 06:17:04;;;;;;;11.23;7.93;;;;;;;;;;5046590;28;20240;-61
2023/12/16 06:19:31;;;;;;;9.67;6.87;;;;;;;;;;5042352;28;20211;-62
2023/12/16 06:21:58;;;;;;;10.67;7.23;;;;;;;;;;5046636;28;20207;-61
2023/12/16 06:24:27;;;;;;;13.63;6.90;;;;;;;;;;5046735;28;20245;-62
2023/12/16 06:26:54;;;;;;;10.47;7.77;;;;;;;;;;5045305;28;20268;-62
2023/12/16 06:29:21;;;;;;;11.97;7.73;;;;;;;;;;5042584;28;20351;-62
2023/12/16 06:31:49;;;;;;;12.90;7.30;;;;;;;;;;5046607;28;20208;-61
2023/12/16 06:34:16;;;;;;;10.97;7.17;;;;;;;;;;5046522;28;20701;-61
2023/12/16 06:36:44;;;;;;;9.50;7.17;;;;;;;;;;5046373;28;20211;-61
2023/12/16 06:39:11;;;;;;;10.07;6.60;;;;;;;;;;5046265;28;20210;-60
2023/12/16 06:41:39;;;;;;;9.23;6.27;;;;;;;;;;5046505;28;20224;-62
2023/12/16 06:44:06;;;;;;;10.63;7.20;;;;;;;;;;5046297;28;20582;-60
2023/12/16 06:46:33;;;;;;;13.27;7.00;;;;;;;;;;5035486;28;20203;-61
2023/12/16 06:49:00;;;;;;;9.10;6.67;;;;;;;;;;5046346;28;20234;-60
2023/12/16 06:51:27;;;;;;;13.87;7.20;;;;;;;;;;5046535;28;20218;-61
2023/12/16 06:53:54;;;;;;;9.80;7.00;;;;;;;;;;5046443;28;20249;-62
2023/12/16 06:56:21;;;;;;;11.60;7.27;;;;;;;;;;5039619;28;20203;-61
2023/12/16 06:58:50;;;;;;;11.13;7.10;;;;;;;;;;5046262;28;20208;-61
2023/12/16 07:01:17;;;;;;;12.27;7.20;;;;;;;;;;5045852;28;20411;-61
2023/12/16 07:03:44;;;;;;;11.67;7.23;;;;;;;;;;5046010;28;20203;-61
2023/12/16 07:06:11;;;;;;;14.77;8.70;;;;;;;;;;5044590;28;20208;-61
2023/12/16 07:08:40;;;;;;;12.50;7.77;;;;;;;;;;5028758;28;20228;-61
2023/12/16 07:11:07;;;;;;;10.77;7.50;;;;;;;;;;5026128;28;20229;-61
2023/12/16 07:13:34;;;;;;;12.13;8.17;;;;;;;;;;5033032;28;20584;-61
2023/12/16 07:16:05;;;;;;;14.53;8.20;;;;;;;;;;5045572;28;20231;-61
2023/12/16 07:18:33;;;;;;;10.80;7.60;;;;;;;;;;5045271;28;20619;-61
2023/12/16 07:21:00;;;;;;;11.13;6.87;;;;;;;;;;5046370;28;20207;-61
2023/12/16 07:23:33;;;;;;;10.10;7.60;;;;;;;;;;5045905;28;20215;-61
2023/12/16 07:26:00;;;;;;;9.60;7.40;;;;;;;;;;5046544;28;20212;-61
2023/12/16 07:28:27;;;;;;;11.57;7.77;;;;;;;;;;5044072;28;20322;-61
2023/12/16 07:30:54;;;;;;;13.90;7.23;;;;;;;;;;5045597;28;20218;-61
2023/12/16 07:33:22;;;;;;;14.47;8.47;;;;;;;;;;5045796;28;20207;-60
2023/12/16 07:35:50;;;;;;;14.37;7.70;;;;;;;;;;5045808;28;20222;-61
2023/12/16 07:38:17;;;;;;;12.30;7.70;;;;;;;;;;5044266;28;20215;-61
2023/12/16 07:40:44;;;;;;;11.73;7.70;;;;;;;;;;5045294;28;20204;-61
2023/12/16 07:43:11;;;;;;;12.80;8.13;;;;;;;;;;5046133;28;20219;-61
2023/12/16 07:45:38;;;;;;;13.23;7.73;;;;;;;;;;5042477;28;20208;-61
2023/12/16 07:48:05;;;;;;;11.13;7.33;;;;;;;;;;5043734;28;20235;-61
2023/12/16 07:50:34;;;;;;;10.93;7.63;;;;;;;;;;5046067;28;20208;-60
2023/12/16 07:53:01;;;;;;;12.97;7.70;;;;;;;;;;5037548;28;20204;-60
2023/12/16 07:55:29;;;;;;;12.90;8.13;;;;;;;;;;5025524;28;20217;-63
2023/12/16 07:57:56;;;;;;;14.30;7.87;;;;;;;;;;5033083;28;20199;-61
2023/12/16 08:00:23;;;;;;;9.83;7.97;;;;;;;;;;5045542;28;20673;-60
2023/12/16 08:02:50;;;;;;;12.30;7.63;;;;;;;;;;5045585;28;20698;-61
2023/12/16 08:05:18;;;;;;;12.20;7.40;;;;;;;;;;5029500;28;20208;-61
2023/12/16 08:07:46;;;;;;;11.53;7.53;;;;;;;;;;5037090;28;20219;-60
2023/12/16 08:10:14;;;;;;;13.73;8.13;;;;;;;;;;5045820;28;20292;-60
2023/12/16 08:12:41;;;;;;;12.83;7.77;;;;;;;;;;5041305;28;20737;-61
2023/12/16 08:15:08;;;;;;;10.20;7.73;;;;;;;;;;5048210;28;20208;-61
2023/12/16 08:17:37;;;;;;;12.40;7.37;;;;;;;;;;5048809;28;20251;-61
2023/12/16 08:20:04;;;;;;;11.03;7.60;;;;;;;;;;5044775;28;20258;-61
2023/12/16 08:22:32;;;;;;;13.13;7.83;;;;;;;;;;5029453;28;20278;-64
2023/12/16 08:25:01;;;;;;;12.73;7.00;;;;;;;;;;5029258;28;20910;-61
2023/12/16 08:27:28;;;;;;;10.60;7.53;;;;;;;;;;5031927;28;20200;-61
2023/12/16 08:29:55;;;;;;;12.30;7.50;;;;;;;;;;5029008;28;20225;-61
2023/12/16 08:32:22;;;;;;;12.73;7.30;;;;;;;;;;5028807;28;20216;-60
2023/12/16 08:34:49;;;;;;;12.77;7.73;;;;;;;;;;5028912;28;20223;-61
2023/12/16 08:37:16;;;;;;;12.90;8.30;;;;;;;;;;5028771;28;20218;-61
2023/12/16 08:39:45;;;;;;;13.60;8.10;;;;;;;;;;5048291;28;20207;-60
2023/12/16 08:42:13;;;;;;;18.27;8.40;;;;;;;;;;5036709;28;20204;-60
2023/12/16 08:44:40;;;;;;;10.57;7.50;;;;;;;;;;5048802;28;20212;-60
2023/12/16 08:47:07;;;;;;;11.57;7.70;;;;;;;;;;5037550;28;20212;-61
2023/12/16 08:49:34;;;;;;;10.40;7.87;;;;;;;;;;5028848;28;20240;-61
2023/12/16 08:52:01;;;;;;;12.00;8.63;;;;;;;;;;5029049;28;20216;-61
2023/12/16 08:54:28;;;;;;;15.90;9.10;;;;;;;;;;5038091;28;20290;-61
2023/12/16 08:56:55;;;;;;;13.47;8.20;;;;;;;;;;5048593;28;20298;-61
2023/12/16 08:59:24;;;;;;;12.17;8.47;;;;;;;;;;5036556;28;20208;-61
2023/12/16 09:01:51;;;;;;;17.67;8.57;;;;;;;;;;5041988;28;20306;-61
2023/12/16 09:04:18;;;;;;;13.27;8.40;;;;;;;;;;5048139;28;20215;-61
2023/12/16 09:06:45;;;;;;;12.57;7.80;;;;;;;;;;5048432;28;20218;-61
2023/12/16 09:09:12;;;;;;;11.77;8.13;;;;;;;;;;5047325;28;20697;-61
2023/12/16 09:11:39;;;;;;;9.67;6.20;;;;;;;;;;5047976;28;20231;-61
2023/12/16 09:14:06;;;;;;;12.23;7.73;;;;;;;;;;5048258;28;20315;-61
2023/12/16 09:16:35;;;;;;;12.37;8.37;;;;;;;;;;5046035;28;20228;-61
2023/12/16 09:19:03;;;;;;;11.70;7.27;;;;;;;;;;5048462;28;20204;-61
2023/12/16 09:21:30;;;;;;;17.63;8.63;;;;;;;;;;5048287;28;20242;-60
2023/12/16 09:23:57;;;;;;;12.57;7.80;;;;;;;;;;5047687;28;20215;-61
2023/12/16 09:26:24;;;;;;;13.57;8.10;;;;;;;;;;5047916;28;20655;-60
2023/12/16 09:28:51;;;;;;;13.30;7.57;;;;;;;;;;5046795;28;20228;-61
2023/12/16 09:31:19;;;;;;;12.03;8.47;;;;;;;;;;5047301;28;20204;-61
2023/12/16 09:33:47;;;;;;;10.87;7.57;;;;;;;;;;5047775;28;20214;-60
2023/12/16 09:36:14;;;;;;;10.87;7.43;;;;;;;;;;5047661;28;20208;-61
2023/12/16 09:38:41;;;;;;;12.20;7.90;;;;;;;;;;5047379;28;20215;-60
2023/12/16 09:41:18;;;;;;;8.87;7.10;;;;;;;;;;5044506;28;20211;-60
2023/12/16 09:43:47;;;;;;;12.20;7.80;;;;;;;;;;5047048;28;20219;-61
2023/12/16 09:46:14;;;;;;;15.60;7.93;;;;;;;;;;5046735;28;20215;-63
2023/12/16 09:48:42;;;;;;;11.63;7.30;;;;;;;;;;5047310;28;20270;-64
2023/12/16 09:51:11;;;;;;;15.33;7.20;;;;;;;;;;5047530;28;20214;-61
2023/12/16 09:53:39;;;;;;;8.77;7.03;;;;;;;;;;5043639;28;20199;-62
2023/12/16 09:56:06;;;;;;;9.90;7.33;;;;;;;;;;5046970;28;20610;-60
2023/12/16 09:58:34;;;;;;;13.43;8.13;;;;;;;;;;5047654;28;20801;-61
2023/12/16 10:01:02;;;;;;;12.83;8.37;;;;;;;;;;5039836;28;20212;-60
2023/12/16 10:03:30;;;;;;;13.77;7.80;;;;;;;;;;5027415;28;20208;-60
2023/12/16 10:05:57;;;;;;;9.30;6.97;;;;;;;;;;5027364;28;20212;-61
2023/12/16 10:08:25;;;;;;;12.30;7.87;;;;;;;;;;5046956;28;20407;-61
2023/12/16 10:10:58;;;;;;;19.40;7.10;;;;;;;;;;5046519;28;20218;-61
2023/12/16 10:13:25;;;;;;;12.07;7.53;;;;;;;;;;5046639;28;20207;-61
2023/12/16 10:15:53;;;;;;;14.63;7.23;;;;;;;;;;5046439;28;20221;-62
2023/12/16 10:18:20;;;;;;;10.30;6.73;;;;;;;;;;5046471;28;20231;-61
2023/12/16 10:20:47;;;;;;;10.73;6.33;;;;;;;;;;5046423;28;20917;-60
2023/12/16 10:23:14;;;;;;;8.90;6.10;;;;;;;;;;5046684;28;20199;-60
2023/12/16 10:25:43;;;;;;;6.03;4.93;;;;;;;;;;5047033;28;20207;-60
2023/12/16 10:28:11;;;;;;;16.60;8.13;;;;;;;;;;5046886;28;20215;-60
2023/12/16 10:30:38;;;;;;;23.50;11.80;;;;;;;;;;5046656;28;20242;-60
2023/12/16 10:33:06;;;;;;;10.67;6.30;;;;;;;;;;5042395;28;20227;-61
2023/12/16 10:35:33;;;;;;;7.97;5.63;;;;;;;;;;5036967;28;20293;-60
2023/12/16 10:38:02;;;;;;;13.53;6.97;;;;;;;;;;5046672;28;20214;-60
2023/12/16 10:40:29;;;;;;;5.83;4.83;;;;;;;;;;5046294;28;20294;-62
2023/12/16 10:42:57;;;;;;;9.83;5.47;;;;;;;;;;5044372;28;20218;-62
2023/12/16 10:45:25;;;;;;;8.20;5.10;;;;;;;;;;5046137;28;20212;-61
2023/12/16 10:47:55;;;;;;;8.57;5.50;;;;;;;;;;5046768;28;20250;-60
2023/12/16 10:50:24;;;;;;;11.70;5.80;;;;;;;;;;5046494;28;20231;-60
2023/12/16 10:52:53;;;;;;;10.70;5.27;;;;;;;;;;5046489;28;20216;-60
2023/12/16 10:55:24;;;;;;;10.30;5.97;;;;;;;;;;5046364;28;20208;-61
2023/12/16 10:57:54;;;;;;;9.53;5.40;;;;;;;;;;5046130;28;20210;-61
2023/12/16 11:00:24;;;;;;;5.67;4.70;;;;;;;;;;5044118;28;20203;-61
2023/12/16 11:02:57;;;;;;;7.90;4.20;;;;;;;;;;5033674;28;20839;-60
2023/12/16 11:05:29;;;;;;;6.17;4.97;;;;;;;;;;5046534;28;20676;-60
2023/12/16 11:07:58;;;;;;;11.50;5.40;;;;;;;;;;5046667;28;20219;-60
2023/12/16 11:10:25;;;;;;;6.07;4.53;;;;;;;;;;5046051;28;20752;-60
2023/12/16 11:12:52;;;;;;;10.43;4.50;;;;;;;;;;5046066;28;20288;-60
2023/12/16 11:15:20;;;;;;;4.60;4.17;;;;;;;;;;5046248;28;20238;-60
2023/12/16 11:17:54;;;;;;;5.93;3.90;;;;;;;;;;5044978;28;20265;-61
2023/12/16 11:20:23;;;;;;;10.60;4.00;;;;;;;;;;5034186;28;20195;-59
2023/12/16 11:22:53;;;;;;;3.77;3.33;;;;;;;;;;5046328;28;20302;-61
2023/12/16 11:25:21;;;;;;;3.53;3.03;;;;;;;;;;5045598;28;20211;-61
2023/12/16 11:27:48;;;;;;;6.77;3.37;;;;;;;;;;5043779;28;20211;-60
2023/12/16 11:30:15;;;;;;;11.60;3.83;;;;;;;;;;5044176;28;20327;-60
2023/12/16 11:32:45;;;;;;;4.53;2.93;;;;;;;;;;5045835;28;20227;-61
2023/12/16 11:35:14;;;;;;;4.73;3.07;;;;;;;;;;5025886;28;20231;-63
2023/12/16 11:37:44;;;;;;;4.00;3.10;;;;;;;;;;5026077;28;20208;-63
2023/12/16 11:40:34;;;;;;;3.60;3.17;;;;;;;;;;5026109;28;20217;-61
2023/12/16 11:43:03;;;;;;;9.13;3.70;;;;;;;;;;5026127;28;20274;-61
2023/12/16 11:45:37;;;;;;;6.97;3.30;;;;;;;;;;5040473;28;20212;-61
2023/12/16 11:48:04;;;;;;;3.83;2.90;;;;;;;;;;5049188;28;20226;-61
2023/12/16 11:50:34;;;;;;;8.53;3.90;;;;;;;;;;5049453;28;20811;-63
2023/12/16 11:53:01;;;;;;;6.10;3.10;;;;;;;;;;5049919;28;20207;-60
2023/12/16 11:55:28;;;;;;;2.50;2.23;;;;;;;;;;5049846;28;20307;-64
2023/12/16 11:57:55;;;;;;;2.80;2.30;;;;;;;;;;5050058;28;20208;-62
2023/12/16 12:00:22;;;;;;;3.63;2.60;;;;;;;;;;5043971;28;20205;-60
2023/12/16 12:02:50;;;;;;;4.03;2.77;;;;;;;;;;5042458;28;20318;-60
2023/12/16 12:05:17;;;;;;;8.80;2.83;;;;;;;;;;5045870;28;20236;-60
2023/12/16 12:07:45;;;;;;;2.80;2.60;;;;;;;;;;5030910;28;20266;-59
2023/12/16 12:10:12;;;;;;;6.53;2.93;;;;;;;;;;5044263;28;20247;-60
2023/12/16 12:12:40;;;;;;;10.17;3.30;;;;;;;;;;5040249;28;20197;-60
2023/12/16 12:15:08;;;;;;;5.10;2.77;;;;;;;;;;5039249;28;20212;-60
2023/12/16 12:17:35;;;;;;;2.97;2.10;;;;;;;;;;5048964;28;20243;-61
2023/12/16 12:20:02;;;;;;;4.27;2.20;;;;;;;;;;5049109;28;20211;-60
2023/12/16 12:22:29;;;;;;;4.40;2.17;;;;;;;;;;5049375;28;20207;-59
2023/12/16 12:24:58;;;;;;;4.83;2.40;;;;;;;;;;5048965;28;20216;-59
2023/12/16 12:27:25;;;;;;;5.13;2.50;;;;;;;;;;5046962;28;20212;-60
2023/12/16 12:29:53;;;;;;;7.60;2.47;;;;;;;;;;5028929;28;20228;-60
2023/12/16 12:32:20;;;;;;;8.40;2.13;;;;;;;;;;5028895;28;20750;-60
2023/12/16 12:34:57;;;;;;;2.67;1.90;;;;;;;;;;5036189;28;20417;-60
2023/12/16 12:37:24;;;;;;;3.57;2.43;;;;;;;;;;5037387;28;20207;-60
2023/12/16 12:39:51;;;;;;;3.47;2.13;;;;;;;;;;5046703;28;20204;-60
2023/12/16 12:42:20;;;;;;;10.80;2.97;;;;;;;;;;5048521;28;20203;-60
2023/12/16 12:44:52;;;;;;;9.17;2.17;;;;;;;;;;5048992;28;20242;-60
2023/12/16 12:47:27;;;;;;;5.23;2.20;;;;;;;;;;5032524;28;20299;-60
2023/12/16 12:49:54;;;;;;;4.03;1.77;;;;;;;;;;5028805;28;20235;-60
2023/12/16 12:52:21;;;;;;;4.67;1.67;;;;;;;;;;5028730;28;20220;-60
2023/12/16 12:54:48;;;;;;;7.83;1.70;;;;;;;;;;5048566;28;20452;-60
2023/12/16 12:57:21;;;;;;;4.17;1.60;;;;;;;;;;5046176;28;20666;-60
2023/12/16 12:59:48;;;;;;;4.03;1.37;;;;;;;;;;5047648;28;20215;-60
2023/12/16 13:02:15;;;;;;;6.10;1.30;;;;;;;;;;5038394;28;20208;-60
2023/12/16 13:04:44;;;;;;;3.97;1.77;;;;;;;;;;5028418;28;20220;-61
2023/12/16 13:07:11;;;;;;;8.63;1.50;;;;;;;;;;5028208;28;20577;-61
2023/12/16 13:09:38;;;;;;;5.20;1.40;;;;;;;;;;5029305;28;20224;-62
2023/12/16 13:12:06;;;;;;;7.23;1.40;;;;;;;;;;5028284;28;20212;-61
2023/12/16 13:14:34;;;;;;;6.47;1.20;;;;;;;;;;5028361;28;20599;-61
2023/12/16 13:17:01;;;;;;;4.10;1.40;;;;;;;;;;5040173;28;20283;-61
2023/12/16 13:19:28;;;;;;;6.13;1.80;;;;;;;;;;5039021;28;20600;-61
2023/12/16 13:21:55;;;;;;;2.40;1.60;;;;;;;;;;5028045;28;20270;-60
2023/12/16 13:24:22;;;;;;;6.43;3.03;;;;;;;;;;5039834;28;20253;-61
2023/12/16 13:26:49;;;;;;;7.40;2.13;;;;;;;;;;5047023;28;20211;-61
2023/12/16 13:29:18;;;;;;;6.23;2.93;;;;;;;;;;5047861;28;20246;-60
2023/12/16 13:31:47;;;;;;;7.73;3.63;;;;;;;;;;5046518;28;20200;-62
2023/12/16 13:34:14;;;;;;;3.90;1.77;;;;;;;;;;5038790;28;20212;-61
2023/12/16 13:36:42;;;;;;;6.43;1.30;;;;;;;;;;5041530;28;20210;-61
2023/12/16 13:39:09;;;;;;;3.60;1.20;;;;;;;;;;5034613;28;20207;-61
2023/12/16 13:41:36;;;;;;;1.60;1.43;;;;;;;;;;5027430;28;20900;-60
2023/12/16 13:44:03;;;;;;;7.67;1.67;;;;;;;;;;5039466;28;20684;-61
2023/12/16 13:46:34;;;;;;;3.23;1.60;;;;;;;;;;5042167;28;20231;-62
2023/12/16 13:49:04;;;;;;;4.03;1.97;;;;;;;;;;5046856;28;20208;-62
2023/12/16 13:51:31;;;;;;;3.93;1.77;;;;;;;;;;5046996;28;20266;-61
2023/12/16 13:53:58;;;;;;;5.93;2.13;;;;;;;;;;5047235;28;20208;-61
2023/12/16 13:56:25;;;;;;;5.40;2.17;;;;;;;;;;5047019;28;20593;-61
2023/12/16 13:58:52;;;;;;;5.33;1.90;;;;;;;;;;5033018;28;20595;-62
2023/12/16 14:01:19;;;;;;;7.47;1.80;;;;;;;;;;5035158;28;20211;-62
2023/12/16 14:03:47;;;;;;;5.40;2.00;;;;;;;;;;5047155;28;20224;-62
2023/12/16 14:06:15;;;;;;;3.90;1.37;;;;;;;;;;5046803;28;20284;-62
2023/12/16 14:08:42;;;;;;;4.13;1.53;;;;;;;;;;5042609;28;20212;-61
2023/12/16 14:11:09;;;;;;;2.57;1.50;;;;;;;;;;5038257;28;20601;-61
2023/12/16 14:13:36;;;;;;;5.17;1.83;;;;;;;;;;5028304;28;20204;-61
2023/12/16 14:16:03;;;;;;;6.80;1.77;;;;;;;;;;5033481;28;20233;-61
2023/12/16 14:18:30;;;;;;;3.17;1.70;;;;;;;;;;5046429;28;20243;-61
2023/12/16 14:20:57;;;;;;;2.63;2.30;;;;;;;;;;5039077;28;20204;-63
2023/12/16 14:23:26;;;;;;;2.10;1.80;;;;;;;;;;5036357;28;20213;-61
2023/12/16 14:25:54;;;;;;;4.07;1.97;;;;;;;;;;5042743;28;20795;-62
2023/12/16 14:28:21;;;;;;;3.60;1.60;;;;;;;;;;5045819;28;20295;-62
2023/12/16 14:30:48;;;;;;;8.23;1.80;;;;;;;;;;5045619;28;20595;-62
2023/12/16 14:33:15;;;;;;;3.00;1.60;;;;;;;;;;5035814;28;20205;-61
2023/12/16 14:35:42;;;;;;;4.47;2.57;;;;;;;;;;5029628;28;20211;-62
2023/12/16 14:38:10;;;;;;;4.70;2.33;;;;;;;;;;5045995;28;20215;-62